East Maine, New York
Current Conditions -  °F | °C
As of 2:53 AM on Saturday 01 Nov 2014 (Local Time) from KBGM Reporting Station
Overcast Overcast  
Wind Chill: 36°   Ceiling: 6000
Heat Index: 41°   Visibility: 10mi
Dew Point: 33°   Wind: 7mph
Humidity: 73%   Direction: 60°ENE
Pressure: 29.88"   Gusts: NA
Location:  42.1768°N, 76.0035°W
Report Text: KBGM 010653Z AUTO 06006KT 10SM FEW028 OVC060 05/01 A2988 RMK AO2 SLP127 T00500006
Loading
Personal Weather Stations






























Interactive Weather Map New forecast layout! Learn more

10-Day Weather Forecast

Advertisements
Track Severe Weather on mobile